Time;durP1;ratioP1;P1;durP2;ratioP2;P2;SDS_P1;SDS_P2;PMS_P1;PMS_P2;Temp;Humidity;BMP_temperature;BMP_pressure;BME280_temperature;BME280_humidity;BME280_pressure;Samples;Min_cycle;Max_cycle;Signal;HPM_P1;HPM_P2
2024/03/18 00:00:20;;;;;;;2.87;2.27;;;11.90;88.10;;;;;;4990754;28;20696;-65
2024/03/18 00:02:47;;;;;;;4.90;2.27;;;11.90;87.20;;;;;;4973783;28;20236;-65
2024/03/18 00:05:13;;;;;;;5.13;2.80;;;11.80;87.80;;;;;;4964369;28;20345;-66
2024/03/18 00:07:40;;;;;;;2.73;2.20;;;11.90;87.50;;;;;;4965660;28;20216;-66
2024/03/18 00:10:09;;;;;;;2.83;2.23;;;11.80;87.80;;;;;;4963239;28;20213;-65
2024/03/18 00:15:23;;;;;;;6.00;2.30;;;11.80;87.90;;;;;;5217831;23;20259;-67
2024/03/18 00:17:49;;;;;;;4.33;2.33;;;11.80;88.10;;;;;;4959632;28;20580;-67
2024/03/18 00:20:16;;;;;;;2.90;2.10;;;11.80;87.80;;;;;;4967449;28;20213;-66
2024/03/18 00:22:43;;;;;;;2.47;2.00;;;11.70;88.40;;;;;;4974256;28;20237;-66
2024/03/18 00:25:11;;;;;;;2.77;2.10;;;11.70;88.50;;;;;;4974324;28;20299;-66
2024/03/18 00:27:37;;;;;;;5.13;2.40;;;11.70;88.50;;;;;;4974345;28;20209;-67
2024/03/18 00:30:04;;;;;;;2.20;2.00;;;11.70;88.60;;;;;;4974164;28;20674;-66
2024/03/18 00:32:31;;;;;;;2.20;2.00;;;11.70;88.70;;;;;;4965643;28;20325;-67
2024/03/18 00:34:57;;;;;;;2.77;1.97;;;11.70;88.60;;;;;;4965581;28;20707;-67
2024/03/18 00:37:24;;;;;;;3.03;2.33;;;11.70;88.80;;;;;;4968536;28;20294;-67
2024/03/18 00:39:51;;;;;;;2.10;1.90;;;11.70;88.70;;;;;;4973027;28;20219;-68
2024/03/18 00:42:16;;;;;;;4.40;1.90;;;11.70;89.30;;;;;;4976643;28;20299;-67
2024/03/18 00:44:43;;;;;;;3.10;2.00;;;11.70;89.50;;;;;;4974858;28;20263;-67
2024/03/18 00:47:10;;;;;;;4.03;1.80;;;11.70;89.50;;;;;;4974205;28;20285;-67
2024/03/18 00:49:37;;;;;;;3.13;1.93;;;11.60;89.70;;;;;;4969068;28;20285;-68
2024/03/18 00:52:04;;;;;;;2.63;2.00;;;11.60;90.00;;;;;;4975725;28;20646;-66
2024/03/18 00:54:31;;;;;;;4.73;1.90;;;11.60;90.30;;;;;;4974610;28;20221;-67
2024/03/18 00:56:58;;;;;;;2.23;2.03;;;11.60;90.30;;;;;;4973727;28;20404;-66
2024/03/18 00:59:24;;;;;;;2.33;2.13;;;11.70;90.30;;;;;;4973798;28;20230;-66
2024/03/18 01:01:51;;;;;;;2.30;1.80;;;11.60;90.70;;;;;;4975037;28;20302;-67
2024/03/18 01:04:20;;;;;;;4.53;1.97;;;11.60;91.10;;;;;;4970988;28;20209;-68
2024/03/18 01:06:47;;;;;;;3.93;1.80;;;11.60;91.80;;;;;;4966314;28;20234;-66
2024/03/18 01:09:16;;;;;;;3.00;2.10;;;11.60;91.10;;;;;;4973753;28;20212;-67
2024/03/18 01:11:42;;;;;;;2.90;2.27;;;11.60;91.70;;;;;;4966006;28;20239;-68
2024/03/18 01:14:09;;;;;;;2.57;2.17;;;11.60;91.80;;;;;;4964121;28;20740;-68
2024/03/18 01:16:36;;;;;;;2.90;1.80;;;11.50;92.90;;;;;;4973465;28;20216;-67
2024/03/18 01:19:02;;;;;;;2.13;1.90;;;11.50;93.30;;;;;;4973438;28;20226;-68
2024/03/18 01:21:29;;;;;;;3.23;1.90;;;11.60;92.90;;;;;;4966084;28;20232;-67
2024/03/18 01:23:56;;;;;;;3.33;1.90;;;11.50;93.10;;;;;;4965300;28;20258;-67
2024/03/18 01:26:22;;;;;;;3.53;2.00;;;11.50;92.80;;;;;;4973240;28;20212;-67
2024/03/18 01:28:49;;;;;;;4.10;2.00;;;11.50;90.90;;;;;;4974293;28;20229;-67
2024/03/18 01:31:15;;;;;;;2.03;1.90;;;11.50;91.10;;;;;;4973438;28;20222;-67
2024/03/18 01:33:42;;;;;;;2.10;1.73;;;11.60;91.00;;;;;;4977015;28;20812;-68
2024/03/18 01:36:09;;;;;;;3.03;1.90;;;11.50;90.70;;;;;;4966902;28;20215;-67
2024/03/18 01:38:36;;;;;;;3.00;2.20;;;11.50;90.60;;;;;;4967321;28;20209;-67
2024/03/18 01:41:02;;;;;;;3.03;2.10;;;11.50;90.50;;;;;;4973283;28;20211;-67
2024/03/18 01:43:29;;;;;;;2.30;2.10;;;11.50;90.40;;;;;;4969315;28;20206;-67
2024/03/18 01:45:56;;;;;;;3.30;2.10;;;11.50;90.40;;;;;;4973959;28;20216;-67
2024/03/18 01:48:22;;;;;;;2.43;2.20;;;11.50;90.40;;;;;;4973184;28;20216;-66
2024/03/18 01:50:49;;;;;;;2.37;1.97;;;11.50;90.60;;;;;;4968265;28;20207;-67
2024/03/18 01:53:16;;;;;;;2.90;2.00;;;11.50;90.60;;;;;;4968815;28;20227;-68
2024/03/18 01:55:42;;;;;;;2.77;1.93;;;11.40;90.90;;;;;;4972299;28;20211;-67
2024/03/18 01:58:09;;;;;;;2.00;1.90;;;11.50;90.70;;;;;;4973213;28;20215;-67
2024/03/18 02:00:36;;;;;;;3.83;2.20;;;11.40;91.10;;;;;;4973472;28;20212;-67
2024/03/18 02:03:03;;;;;;;2.20;2.10;;;11.40;91.20;;;;;;4973665;28;20232;-67
2024/03/18 02:05:30;;;;;;;2.80;1.97;;;11.40;91.10;;;;;;4973073;28;20215;-67
2024/03/18 02:07:57;;;;;;;2.53;2.10;;;11.40;91.40;;;;;;4965018;28;20650;-67
2024/03/18 02:10:24;;;;;;;2.93;1.90;;;11.30;91.90;;;;;;4965800;28;20207;-67
2024/03/18 02:12:52;;;;;;;2.50;2.20;;;11.30;92.00;;;;;;4968246;28;20623;-68
2024/03/18 02:15:19;;;;;;;3.73;2.00;;;11.30;92.00;;;;;;4972168;28;20216;-67
2024/03/18 02:17:46;;;;;;;2.57;2.00;;;11.20;92.00;;;;;;4972371;28;20230;-67
2024/03/18 02:20:13;;;;;;;2.20;1.80;;;11.30;92.40;;;;;;4960188;28;20223;-68
2024/03/18 02:22:39;;;;;;;3.47;1.90;;;11.20;92.50;;;;;;4967808;28;20231;-68
2024/03/18 02:25:08;;;;;;;1.87;1.77;;;11.30;92.20;;;;;;4974690;28;20617;-67
2024/03/18 02:27:35;;;;;;;3.13;1.70;;;11.30;92.30;;;;;;4976602;28;20290;-67
2024/03/18 02:30:02;;;;;;;3.23;1.70;;;11.20;92.20;;;;;;5303362;23;20239;-65
2024/03/18 02:32:30;;;;;;;2.10;1.90;;;11.40;92.30;;;;;;4971523;28;20235;-64
2024/03/18 02:34:57;;;;;;;2.40;2.00;;;11.30;92.30;;;;;;4968354;28;20310;-65
2024/03/18 02:37:24;;;;;;;2.00;1.83;;;11.20;92.50;;;;;;4970909;28;20218;-64
2024/03/18 02:39:52;;;;;;;3.00;1.70;;;11.30;92.40;;;;;;4974783;28;20642;-66
2024/03/18 02:42:19;;;;;;;1.73;1.63;;;11.30;92.60;;;;;;4974891;28;20232;-65
2024/03/18 02:44:46;;;;;;;3.63;1.80;;;11.30;92.80;;;;;;4976276;28;20211;-66
2024/03/18 02:47:12;;;;;;;2.73;1.90;;;11.20;93.10;;;;;;4978392;28;20215;-66
2024/03/18 02:49:39;;;;;;;3.10;2.03;;;11.30;93.10;;;;;;4977487;28;20215;-66
2024/03/18 02:52:06;;;;;;;3.03;1.73;;;11.30;93.30;;;;;;4971134;28;20286;-65
2024/03/18 02:54:33;;;;;;;1.63;1.53;;;11.20;93.60;;;;;;4969166;28;20215;-66
2024/03/18 02:56:59;;;;;;;1.70;1.60;;;11.20;94.40;;;;;;4972608;28;20218;-66
2024/03/18 02:59:26;;;;;;;4.13;1.73;;;11.20;95.90;;;;;;4975051;28;20683;-65
2024/03/18 03:01:53;;;;;;;2.37;1.67;;;11.20;95.70;;;;;;4974241;28;20227;-66
2024/03/18 03:04:19;;;;;;;3.23;1.70;;;11.30;96.50;;;;;;4976369;28;20222;-66
2024/03/18 03:06:46;;;;;;;1.90;1.70;;;11.20;96.10;;;;;;4973863;28;20212;-66
2024/03/18 03:09:15;;;;;;;2.03;1.87;;;11.20;94.90;;;;;;4976315;28;20212;-66
2024/03/18 03:11:42;;;;;;;2.23;1.77;;;11.10;91.60;;;;;;4970368;28;20624;-66
2024/03/18 03:14:09;;;;;;;2.03;1.60;;;11.10;91.00;;;;;;4971131;28;20236;-66
2024/03/18 03:16:35;;;;;;;1.93;1.50;;;11.20;90.90;;;;;;4972751;28;20259;-66
2024/03/18 03:19:02;;;;;;;4.77;1.80;;;11.20;90.70;;;;;;4982567;28;20211;-66
2024/03/18 03:21:29;;;;;;;3.33;1.60;;;11.10;91.00;;;;;;4968820;28;20229;-66
2024/03/18 03:23:55;;;;;;;1.60;1.50;;;11.20;92.30;;;;;;4975454;28;20216;-65
2024/03/18 03:26:22;;;;;;;2.03;1.27;;;11.10;92.40;;;;;;4975611;28;20219;-66
2024/03/18 03:28:49;;;;;;;2.50;1.63;;;11.10;92.70;;;;;;4968499;28;20212;-66
2024/03/18 03:31:15;;;;;;;3.83;1.97;;;11.10;92.90;;;;;;4975296;28;20219;-65
2024/03/18 03:33:42;;;;;;;2.33;1.60;;;11.10;92.80;;;;;;4972639;28;20236;-66
2024/03/18 03:36:10;;;;;;;2.27;1.57;;;11.10;92.80;;;;;;4971290;28;20212;-66
2024/03/18 03:38:37;;;;;;;3.17;1.63;;;11.00;92.50;;;;;;4963708;28;20223;-66
2024/03/18 03:41:04;;;;;;;3.27;1.77;;;11.10;92.80;;;;;;4975440;28;20215;-65
2024/03/18 03:43:30;;;;;;;1.60;1.50;;;11.10;92.90;;;;;;4974950;28;20212;-65
2024/03/18 03:45:57;;;;;;;2.30;1.63;;;11.10;92.70;;;;;;4975278;28;20211;-66
2024/03/18 03:48:24;;;;;;;2.40;1.63;;;11.20;92.60;;;;;;4961216;28;20215;-66
2024/03/18 03:50:50;;;;;;;2.27;1.80;;;11.20;92.50;;;;;;4965915;28;20248;-65
2024/03/18 03:53:17;;;;;;;2.10;1.50;;;11.10;92.80;;;;;;4969123;28;20606;-66
2024/03/18 03:55:43;;;;;;;5.70;2.40;;;11.00;92.40;;;;;;4973592;28;20211;-66
2024/03/18 03:58:10;;;;;;;1.77;1.67;;;11.00;92.40;;;;;;4975502;28;20311;-66
2024/03/18 04:00:37;;;;;;;2.23;1.70;;;11.10;92.40;;;;;;4974108;28;20208;-65
2024/03/18 04:03:03;;;;;;;1.70;1.60;;;11.10;92.40;;;;;;4977373;28;20224;-66
2024/03/18 04:05:30;;;;;;;2.50;1.70;;;11.10;92.60;;;;;;4968036;28;20223;-66
2024/03/18 04:07:57;;;;;;;3.40;1.50;;;11.10;92.70;;;;;;4972279;28;20351;-66
2024/03/18 04:10:24;;;;;;;1.80;1.70;;;11.10;92.70;;;;;;4967742;28;20215;-65
2024/03/18 04:12:50;;;;;;;1.80;1.70;;;11.00;92.90;;;;;;4972146;28;20319;-66
2024/03/18 04:15:17;;;;;;;4.07;2.10;;;11.00;92.70;;;;;;4970901;28;20209;-65
2024/03/18 04:17:44;;;;;;;2.33;1.87;;;11.00;92.90;;;;;;4974623;28;20227;-66
2024/03/18 04:20:19;;;;;;;2.53;1.53;;;11.00;92.80;;;;;;4969580;28;20211;-67
2024/03/18 04:22:46;;;;;;;1.70;1.60;;;11.00;93.10;;;;;;4965954;28;20223;-65
2024/03/18 04:25:13;;;;;;;3.00;1.80;;;11.00;93.00;;;;;;4974807;28;20689;-66
2024/03/18 04:27:39;;;;;;;3.70;2.00;;;11.00;92.90;;;;;;4971629;28;20276;-66
2024/03/18 04:30:05;;;;;;;1.47;1.37;;;11.00;93.30;;;;;;4974841;28;20215;-65
2024/03/18 04:32:32;;;;;;;2.53;1.40;;;11.00;93.30;;;;;;4974354;28;20270;-66
2024/03/18 04:34:58;;;;;;;2.10;1.50;;;11.10;93.40;;;;;;4972910;28;20792;-66
2024/03/18 04:37:25;;;;;;;1.80;1.70;;;11.10;93.20;;;;;;4972109;28;20208;-68
2024/03/18 04:39:52;;;;;;;2.20;1.50;;;11.10;93.40;;;;;;4971911;28;20215;-66
2024/03/18 04:42:18;;;;;;;1.93;1.73;;;11.10;93.40;;;;;;4968186;28;20681;-65
2024/03/18 04:44:45;;;;;;;1.70;1.60;;;11.10;93.40;;;;;;4969672;28;20254;-66
2024/03/18 04:47:12;;;;;;;2.80;1.60;;;11.10;93.30;;;;;;4973640;28;20594;-66
2024/03/18 04:49:38;;;;;;;2.77;1.90;;;11.10;93.50;;;;;;4968568;28;20216;-66
2024/03/18 04:52:05;;;;;;;3.10;1.90;;;11.00;93.60;;;;;;4972235;28;20227;-66
2024/03/18 04:54:31;;;;;;;2.00;1.90;;;11.00;93.60;;;;;;4974355;28;20299;-66
2024/03/18 04:56:58;;;;;;;1.80;1.70;;;11.10;93.80;;;;;;4966254;28;20207;-66
2024/03/18 04:59:25;;;;;;;1.60;1.50;;;11.10;93.80;;;;;;4974499;28;20235;-66
2024/03/18 05:01:51;;;;;;;2.50;1.93;;;11.10;93.90;;;;;;4969229;28;20235;-66
2024/03/18 05:04:18;;;;;;;2.00;1.80;;;11.00;93.80;;;;;;4969439;28;20583;-65
2024/03/18 05:06:45;;;;;;;1.93;1.73;;;11.00;94.20;;;;;;4967079;28;20216;-66
2024/03/18 05:09:11;;;;;;;2.07;1.50;;;11.00;94.30;;;;;;4974353;28;20219;-66
2024/03/18 05:11:38;;;;;;;2.20;1.67;;;11.10;94.40;;;;;;4975587;28;20241;-67
2024/03/18 05:14:04;;;;;;;3.23;2.43;;;11.10;94.80;;;;;;4975130;28;20226;-66
2024/03/18 05:16:37;;;;;;;2.90;1.77;;;11.00;95.10;;;;;;4967513;28;20208;-66
2024/03/18 05:19:04;;;;;;;1.93;1.80;;;11.00;94.80;;;;;;4963080;28;20356;-66
2024/03/18 05:21:30;;;;;;;2.80;2.13;;;10.90;95.20;;;;;;4968134;28;20238;-65
2024/03/18 05:23:57;;;;;;;1.57;1.47;;;11.00;95.40;;;;;;4971668;28;20204;-66
2024/03/18 05:26:24;;;;;;;1.83;1.70;;;11.00;95.30;;;;;;4972673;28;20590;-66
2024/03/18 05:28:50;;;;;;;2.50;1.90;;;11.00;95.10;;;;;;4974053;28;20213;-65
2024/03/18 05:31:17;;;;;;;2.10;1.90;;;11.00;94.40;;;;;;4973703;28;20741;-66
2024/03/18 05:33:44;;;;;;;1.87;1.50;;;11.00;94.60;;;;;;4965213;28;20235;-66
2024/03/18 05:36:11;;;;;;;1.70;1.60;;;11.00;94.40;;;;;;4978628;28;20219;-66
2024/03/18 05:38:37;;;;;;;2.00;1.80;;;11.10;94.30;;;;;;4986713;28;20208;-66
2024/03/18 05:41:04;;;;;;;2.40;1.60;;;11.00;94.30;;;;;;4968956;28;20211;-66
2024/03/18 05:43:31;;;;;;;1.90;1.80;;;11.00;94.60;;;;;;4966724;28;20262;-67
2024/03/18 05:45:59;;;;;;;2.87;1.70;;;11.10;94.70;;;;;;4975627;28;20211;-66
2024/03/18 05:48:25;;;;;;;3.33;1.70;;;11.10;94.90;;;;;;4966830;28;20295;-66
2024/03/18 05:50:52;;;;;;;2.27;1.70;;;11.10;95.40;;;;;;4972643;28;20211;-66
2024/03/18 05:53:18;;;;;;;1.80;1.70;;;11.10;95.70;;;;;;4974224;28;20226;-66
2024/03/18 05:55:45;;;;;;;2.20;1.77;;;10.80;98.10;;;;;;4966725;28;20218;-66
2024/03/18 05:58:11;;;;;;;2.97;1.83;;;11.20;96.50;;;;;;4961663;28;20832;-66
2024/03/18 06:00:39;;;;;;;1.83;1.63;;;11.10;96.50;;;;;;4972692;28;20223;-67
2024/03/18 06:03:06;;;;;;;2.03;1.80;;;11.30;96.70;;;;;;4966383;28;20254;-67
2024/03/18 06:05:33;;;;;;;2.17;1.93;;;11.30;96.00;;;;;;4981268;28;20291;-66
2024/03/18 06:07:59;;;;;;;3.53;2.03;;;11.40;95.10;;;;;;4973212;28;20234;-67
2024/03/18 06:10:26;;;;;;;3.03;2.23;;;11.40;95.10;;;;;;4974594;28;20229;-66
2024/03/18 06:12:53;;;;;;;2.77;2.00;;;11.30;95.10;;;;;;4973559;28;20742;-66
2024/03/18 06:15:19;;;;;;;2.03;1.87;;;11.30;95.10;;;;;;4966008;28;20419;-65
2024/03/18 06:17:46;;;;;;;2.30;2.07;;;11.30;95.00;;;;;;4972001;28;20668;-65
2024/03/18 06:20:14;;;;;;;3.83;2.37;;;11.30;94.70;;;;;;4964858;28;20753;-64
2024/03/18 06:22:41;;;;;;;2.83;2.03;;;11.30;94.80;;;;;;4972544;28;20611;-65
2024/03/18 06:27:52;;;;;;;2.57;1.87;;;11.30;94.60;;;;;;4972857;28;20197;-66
2024/03/18 06:30:18;;;;;;;1.93;1.70;;;11.30;94.50;;;;;;4973233;28;20219;-65
2024/03/18 06:32:45;;;;;;;2.90;2.17;;;11.30;90.80;;;;;;4969132;28;20235;-66
2024/03/18 06:35:11;;;;;;;2.10;2.00;;;11.30;89.00;;;;;;4973228;28;20668;-64
2024/03/18 06:37:39;;;;;;;2.70;2.00;;;11.40;88.40;;;;;;4968352;28;20584;-66
2024/03/18 06:40:06;;;;;;;3.30;2.30;;;11.50;88.20;;;;;;4972208;28;20262;-65
2024/03/18 06:42:33;;;;;;;2.20;1.73;;;11.40;87.80;;;;;;4972344;28;20655;-66
2024/03/18 06:44:59;;;;;;;4.03;2.00;;;11.50;87.00;;;;;;4972136;28;20216;-65
2024/03/18 06:47:26;;;;;;;2.73;2.00;;;11.50;87.10;;;;;;4972433;28;20216;-66
2024/03/18 06:49:53;;;;;;;2.33;1.97;;;11.40;86.90;;;;;;4969154;28;20214;-65
2024/03/18 06:52:19;;;;;;;1.90;1.80;;;11.50;87.30;;;;;;4970977;28;20736;-66
2024/03/18 06:54:46;;;;;;;2.23;2.03;;;11.50;86.90;;;;;;4962794;28;20605;-66
2024/03/18 06:57:15;;;;;;;2.37;1.93;;;11.50;86.90;;;;;;4962168;28;20222;-66
2024/03/18 06:59:41;;;;;;;2.77;2.43;;;11.60;86.60;;;;;;4969683;28;20235;-67
2024/03/18 07:02:08;;;;;;;3.03;2.00;;;11.50;86.70;;;;;;4961828;28;20232;-66
2024/03/18 07:04:34;;;;;;;3.23;1.80;;;11.60;86.80;;;;;;4971834;28;20241;-66
2024/03/18 07:07:02;;;;;;;1.93;1.57;;;11.60;86.40;;;;;;4964363;28;20719;-66
2024/03/18 07:09:29;;;;;;;2.10;1.80;;;11.70;86.70;;;;;;4972390;28;20664;-67
2024/03/18 07:11:56;;;;;;;2.50;1.70;;;11.60;86.30;;;;;;4972323;28;20241;-66
2024/03/18 07:14:22;;;;;;;3.03;1.70;;;11.70;86.40;;;;;;4967089;28;20228;-66
2024/03/18 07:16:49;;;;;;;3.87;1.90;;;11.70;86.40;;;;;;4974800;28;20304;-67
2024/03/18 07:19:16;;;;;;;3.53;1.90;;;11.70;86.40;;;;;;4967771;28;20246;-66
2024/03/18 07:21:43;;;;;;;5.00;2.10;;;11.60;86.30;;;;;;4958731;28;20228;-66
2024/03/18 07:24:09;;;;;;;2.30;1.60;;;11.60;86.30;;;;;;4971773;28;20255;-66
2024/03/18 07:26:36;;;;;;;2.30;2.10;;;11.70;86.40;;;;;;4969292;28;20231;-66
2024/03/18 07:29:03;;;;;;;2.93;2.00;;;11.80;86.50;;;;;;4968280;28;20675;-64
2024/03/18 07:31:30;;;;;;;3.13;1.90;;;11.80;86.10;;;;;;4971620;28;21278;-65
2024/03/18 07:33:57;;;;;;;3.67;2.73;;;11.80;86.20;;;;;;4970016;28;20698;-65
2024/03/18 07:36:24;;;;;;;4.40;4.00;;;11.80;86.40;;;;;;4966740;28;20297;-64
2024/03/18 07:38:51;;;;;;;8.77;7.13;;;11.90;85.90;;;;;;4963700;28;20306;-65
2024/03/18 07:41:18;;;;;;;3.07;2.40;;;11.90;86.00;;;;;;4967425;28;20219;-65
2024/03/18 07:43:47;;;;;;;3.20;2.03;;;12.00;85.50;;;;;;4974394;28;20440;-65
2024/03/18 07:46:13;;;;;;;1.70;1.60;;;11.90;86.00;;;;;;4981686;28;20200;-65
2024/03/18 07:48:40;;;;;;;2.40;1.93;;;12.10;84.90;;;;;;4973157;28;20211;-65
2024/03/18 07:51:08;;;;;;;3.17;1.80;;;12.20;84.90;;;;;;4968223;28;20212;-65
2024/03/18 07:53:35;;;;;;;3.23;2.00;;;12.30;84.60;;;;;;4974665;28;20235;-64
2024/03/18 07:56:01;;;;;;;2.80;1.90;;;12.50;84.50;;;;;;4961242;28;20302;-64
2024/03/18 07:58:28;;;;;;;3.90;2.47;;;12.60;83.70;;;;;;4970835;28;20231;-64
2024/03/18 08:00:55;;;;;;;4.97;2.00;;;12.60;83.70;;;;;;4976757;28;20214;-65
2024/03/18 08:03:22;;;;;;;9.00;6.10;;;12.80;83.20;;;;;;4965370;28;20221;-66
2024/03/18 08:05:48;;;;;;;3.53;2.10;;;12.90;82.90;;;;;;4968703;28;20213;-66
2024/03/18 08:08:15;;;;;;;2.67;2.47;;;12.70;83.00;;;;;;4953520;28;20573;-66
2024/03/18 08:10:42;;;;;;;3.33;2.10;;;12.70;83.10;;;;;;4969599;28;20213;-65
2024/03/18 08:13:08;;;;;;;3.90;2.40;;;12.70;83.30;;;;;;4962378;28;20226;-65
2024/03/18 08:15:38;;;;;;;1.97;1.80;;;12.60;83.50;;;;;;4965786;28;20217;-66
2024/03/18 08:18:05;;;;;;;3.47;2.00;;;12.70;83.20;;;;;;4964348;28;20552;-65
2024/03/18 08:20:32;;;;;;;2.50;1.83;;;12.60;83.80;;;;;;4958741;28;20210;-67
2024/03/18 08:22:59;;;;;;;2.80;2.00;;;12.60;83.40;;;;;;4968205;28;20225;-66
2024/03/18 08:25:26;;;;;;;2.53;1.93;;;12.50;84.10;;;;;;4962335;28;20205;-68
2024/03/18 08:27:52;;;;;;;2.27;2.07;;;12.40;84.70;;;;;;4968233;28;20680;-68
2024/03/18 08:30:19;;;;;;;2.77;2.17;;;12.40;84.10;;;;;;4959314;28;20665;-66
2024/03/18 08:32:46;;;;;;;2.77;1.97;;;12.60;83.60;;;;;;4962656;28;20727;-64
2024/03/18 08:35:12;;;;;;;2.83;1.80;;;12.60;82.90;;;;;;4973190;28;20244;-64
2024/03/18 08:37:39;;;;;;;2.27;1.77;;;12.60;83.10;;;;;;4970970;28;20215;-64
2024/03/18 08:40:06;;;;;;;2.97;1.90;;;12.60;83.00;;;;;;4965149;28;20211;-64
2024/03/18 08:42:33;;;;;;;2.37;1.77;;;12.50;83.40;;;;;;4970517;28;20221;-65
2024/03/18 08:44:59;;;;;;;2.20;2.10;;;12.50;83.40;;;;;;4969350;28;20206;-64
2024/03/18 08:47:26;;;;;;;1.83;1.60;;;12.50;83.80;;;;;;4965619;28;20216;-64
2024/03/18 08:49:53;;;;;;;1.57;1.43;;;12.40;84.50;;;;;;4968649;28;20205;-64
2024/03/18 08:52:19;;;;;;;2.40;1.80;;;12.50;84.70;;;;;;4973061;28;20228;-64
2024/03/18 08:54:47;;;;;;;2.20;1.80;;;12.50;84.00;;;;;;4967413;28;20254;-65
2024/03/18 08:57:13;;;;;;;3.23;2.10;;;12.40;84.30;;;;;;4967826;28;20240;-65
2024/03/18 08:59:40;;;;;;;3.70;1.90;;;12.40;84.20;;;;;;4953267;28;20207;-65
2024/03/18 09:02:06;;;;;;;2.60;1.77;;;12.40;84.10;;;;;;4968614;28;20605;-65
2024/03/18 09:04:33;;;;;;;2.83;2.00;;;12.40;83.80;;;;;;4955684;28;20219;-65
2024/03/18 09:07:00;;;;;;;3.60;2.00;;;12.50;84.00;;;;;;4959172;28;20212;-66
2024/03/18 09:09:28;;;;;;;1.77;1.60;;;12.50;83.50;;;;;;4966968;28;20669;-65
2024/03/18 09:11:54;;;;;;;3.00;1.90;;;12.60;83.00;;;;;;4966318;28;20623;-65
2024/03/18 09:14:22;;;;;;;4.97;2.03;;;12.60;83.10;;;;;;4968916;28;20648;-64
2024/03/18 09:16:48;;;;;;;2.10;1.90;;;12.60;83.30;;;;;;4962387;28;20219;-64
2024/03/18 09:19:15;;;;;;;3.37;1.40;;;12.50;83.60;;;;;;4969279;28;20220;-64
2024/03/18 09:21:41;;;;;;;2.07;1.87;;;12.50;83.70;;;;;;4970135;28;20239;-67
2024/03/18 09:24:08;;;;;;;2.10;1.70;;;12.50;84.00;;;;;;4963500;28;20202;-63
2024/03/18 09:26:35;;;;;;;2.43;1.97;;;12.50;84.40;;;;;;4968181;28;20209;-65
2024/03/18 09:29:02;;;;;;;2.87;2.00;;;12.40;85.00;;;;;;4971930;28;20209;-64
2024/03/18 09:31:28;;;;;;;4.30;1.90;;;12.40;85.40;;;;;;4969736;28;20243;-64
2024/03/18 09:33:55;;;;;;;2.23;2.03;;;12.50;83.60;;;;;;4970819;28;20232;-66
2024/03/18 09:36:22;;;;;;;4.80;2.00;;;12.60;83.30;;;;;;4956686;28;20592;-65
2024/03/18 09:38:49;;;;;;;2.70;1.80;;;12.60;82.90;;;;;;4962491;28;20213;-65
2024/03/18 09:41:15;;;;;;;2.40;2.00;;;12.60;83.00;;;;;;4970140;28;20222;-66
2024/03/18 09:43:42;;;;;;;2.67;1.90;;;12.60;83.30;;;;;;4962942;28;20792;-64
2024/03/18 09:46:09;;;;;;;4.33;2.50;;;12.70;83.20;;;;;;4968798;28;20210;-64
2024/03/18 09:48:35;;;;;;;3.30;2.40;;;12.70;83.80;;;;;;4964691;28;20218;-64
2024/03/18 09:51:03;;;;;;;2.90;2.10;;;12.60;84.70;;;;;;4963432;28;20214;-64
2024/03/18 09:53:29;;;;;;;2.10;1.90;;;12.50;84.20;;;;;;4956389;28;20591;-65
2024/03/18 09:55:56;;;;;;;3.10;2.10;;;12.50;84.50;;;;;;4966563;28;20233;-65
2024/03/18 09:58:23;;;;;;;2.30;2.10;;;12.50;84.20;;;;;;4971202;28;20206;-64
2024/03/18 10:00:50;;;;;;;3.80;2.30;;;12.50;84.40;;;;;;4972642;28;20263;-64
2024/03/18 10:03:17;;;;;;;2.60;1.80;;;12.60;84.70;;;;;;4966337;28;20231;-65
2024/03/18 10:05:44;;;;;;;2.13;1.70;;;12.60;83.60;;;;;;4961603;28;20207;-65
2024/03/18 10:08:10;;;;;;;1.70;1.43;;;12.60;82.60;;;;;;4965891;28;20219;-65
2024/03/18 10:10:37;;;;;;;2.53;1.80;;;12.60;81.70;;;;;;4961825;28;20670;-65
2024/03/18 10:13:04;;;;;;;2.70;1.70;;;12.60;82.10;;;;;;4964556;28;20226;-63
2024/03/18 10:15:30;;;;;;;2.60;1.60;;;12.70;82.00;;;;;;4970937;28;20274;-65
2024/03/18 10:17:57;;;;;;;3.10;1.70;;;12.70;81.10;;;;;;4972962;28;20569;-65
2024/03/18 10:20:23;;;;;;;2.73;1.57;;;12.80;80.70;;;;;;4972393;28;20220;-65
2024/03/18 10:22:51;;;;;;;1.83;1.63;;;12.80;81.10;;;;;;4963846;28;20718;-64
2024/03/18 10:25:21;;;;;;;4.57;2.00;;;12.90;80.90;;;;;;4973457;28;20297;-64
2024/03/18 10:27:47;;;;;;;3.17;1.67;;;12.90;80.80;;;;;;4965720;28;20316;-64
2024/03/18 10:30:14;;;;;;;2.40;1.50;;;12.80;80.50;;;;;;4962807;28;20265;-64
2024/03/18 10:32:41;;;;;;;3.57;2.07;;;12.90;80.40;;;;;;4967932;28;20232;-65
2024/03/18 10:35:08;;;;;;;3.03;1.70;;;12.90;80.90;;;;;;4972569;28;20237;-65
2024/03/18 10:37:35;;;;;;;3.67;1.60;;;13.00;80.60;;;;;;4964840;28;20255;-63
2024/03/18 10:40:01;;;;;;;2.00;1.90;;;13.10;80.30;;;;;;4964849;28;20616;-65
2024/03/18 10:42:28;;;;;;;2.63;1.57;;;13.10;80.50;;;;;;4967204;28;20238;-65
2024/03/18 10:44:54;;;;;;;2.37;1.70;;;13.10;81.10;;;;;;4967578;28;20209;-65
2024/03/18 10:47:21;;;;;;;4.00;1.80;;;13.00;80.30;;;;;;4959772;28;20220;-65
2024/03/18 10:49:47;;;;;;;5.60;1.77;;;12.80;80.80;;;;;;4972363;28;20212;-64
2024/03/18 10:52:14;;;;;;;3.23;1.63;;;12.90;80.90;;;;;;4971580;28;20231;-65
2024/03/18 10:54:41;;;;;;;2.63;2.20;;;12.80;80.90;;;;;;4957290;28;20237;-65
2024/03/18 10:57:08;;;;;;;5.67;2.07;;;12.90;80.80;;;;;;4954730;28;20390;-64
2024/03/18 10:59:34;;;;;;;3.90;2.33;;;12.90;80.80;;;;;;4970859;28;20678;-64
2024/03/18 11:02:01;;;;;;;4.63;2.17;;;13.00;81.20;;;;;;4972672;28;20241;-65
2024/03/18 11:04:29;;;;;;;4.20;2.00;;;12.90;81.30;;;;;;4969580;28;20204;-65
2024/03/18 11:06:56;;;;;;;2.60;1.80;;;13.00;81.40;;;;;;4967466;28;20223;-65
2024/03/18 11:09:23;;;;;;;3.27;1.67;;;13.00;81.10;;;;;;4971545;28;20748;-68
2024/03/18 11:11:50;;;;;;;1.93;1.40;;;13.00;80.90;;;;;;4975095;28;20239;-68
2024/03/18 11:14:16;;;;;;;2.97;2.07;;;13.10;80.80;;;;;;4971588;28;20263;-68
2024/03/18 11:16:43;;;;;;;3.00;1.77;;;13.00;80.90;;;;;;4963555;28;20586;-67
2024/03/18 11:19:10;;;;;;;1.90;1.77;;;13.00;81.50;;;;;;4960901;28;20211;-67
2024/03/18 11:21:37;;;;;;;5.13;2.33;;;13.00;82.30;;;;;;4966586;28;20235;-71
2024/03/18 11:24:04;;;;;;;2.90;2.20;;;12.90;81.80;;;;;;4967000;28;20292;-67
2024/03/18 11:26:31;;;;;;;1.63;1.50;;;12.90;81.70;;;;;;4919251;28;20211;-69
2024/03/18 11:28:57;;;;;;;4.23;2.10;;;12.90;81.40;;;;;;4966388;28;20581;-67
2024/03/18 11:31:24;;;;;;;3.30;1.77;;;13.00;81.50;;;;;;4963731;28;20254;-68
2024/03/18 11:33:51;;;;;;;2.67;1.73;;;13.00;82.00;;;;;;4969065;28;20207;-68
2024/03/18 11:36:17;;;;;;;3.67;1.87;;;13.00;82.30;;;;;;4970097;28;20724;-67
2024/03/18 11:38:44;;;;;;;4.73;2.20;;;12.90;82.20;;;;;;4968071;28;20666;-66
2024/03/18 11:41:10;;;;;;;6.40;2.27;;;12.90;83.00;;;;;;4967633;28;20210;-65
2024/03/18 11:43:37;;;;;;;2.47;2.03;;;12.80;83.30;;;;;;4960826;28;20305;-66
2024/03/18 11:46:05;;;;;;;4.30;2.47;;;12.80;84.50;;;;;;4965984;28;20210;-65
2024/03/18 11:48:32;;;;;;;3.33;2.10;;;12.80;84.80;;;;;;4969620;28;20248;-67
2024/03/18 11:50:58;;;;;;;2.67;2.27;;;12.80;84.20;;;;;;4966610;28;20219;-66
2024/03/18 11:53:25;;;;;;;4.43;2.10;;;12.80;85.30;;;;;;4971496;28;20296;-66
2024/03/18 11:55:53;;;;;;;2.87;2.10;;;12.90;85.00;;;;;;4968881;28;20228;-67
2024/03/18 11:58:19;;;;;;;3.60;2.50;;;12.80;85.50;;;;;;4972817;28;20213;-66
2024/03/18 12:00:47;;;;;;;2.13;1.87;;;12.70;84.60;;;;;;4962680;28;20211;-66
2024/03/18 12:03:14;;;;;;;2.87;2.50;;;12.70;85.70;;;;;;4967017;28;20245;-67
2024/03/18 12:05:41;;;;;;;2.87;2.50;;;12.70;85.30;;;;;;4968327;28;20207;-68
2024/03/18 12:08:08;;;;;;;4.33;2.60;;;12.70;86.40;;;;;;4948481;28;20353;-65
2024/03/18 12:10:34;;;;;;;3.80;2.23;;;12.60;86.80;;;;;;4965354;28;20608;-66
2024/03/18 12:13:01;;;;;;;4.23;2.27;;;12.70;87.00;;;;;;4954863;28;20240;-67
2024/03/18 12:15:28;;;;;;;3.47;2.30;;;12.80;87.50;;;;;;4947384;28;20229;-66
2024/03/18 12:17:54;;;;;;;2.87;2.67;;;12.80;87.10;;;;;;4972198;28;20586;-65
2024/03/18 12:20:20;;;;;;;3.27;2.50;;;12.70;87.40;;;;;;4971972;28;20206;-67
2024/03/18 12:22:46;;;;;;;3.70;2.10;;;12.80;86.70;;;;;;4964320;28;20303;-67
2024/03/18 12:30:43;;;;;;;4.57;3.30;;;12.60;86.20;;;;;;4953042;28;20195;-68
2024/03/18 12:33:11;;;;;;;6.43;3.17;;;12.70;86.90;;;;;;4978803;28;20649;-66
2024/03/18 12:35:38;;;;;;;3.07;2.63;;;12.70;87.20;;;;;;4967479;28;20217;-69
2024/03/18 12:38:05;;;;;;;4.67;2.80;;;12.60;87.30;;;;;;4987063;28;20211;-66
2024/03/18 12:40:32;;;;;;;3.53;2.53;;;12.60;87.30;;;;;;4961512;28;20611;-66
2024/03/18 12:42:59;;;;;;;2.97;2.67;;;12.70;87.40;;;;;;4969085;28;20222;-65
2024/03/18 12:45:25;;;;;;;3.10;2.73;;;12.60;88.30;;;;;;4968323;28;20196;-67
2024/03/18 12:47:54;;;;;;;3.40;2.57;;;12.60;88.60;;;;;;4961908;28;20210;-67
2024/03/18 12:50:22;;;;;;;5.47;2.70;;;12.40;89.30;;;;;;4966950;28;20300;-66
2024/03/18 12:52:49;;;;;;;3.63;2.67;;;12.50;90.20;;;;;;4971807;28;20258;-67
2024/03/18 12:55:16;;;;;;;4.13;2.97;;;12.40;90.90;;;;;;4972485;28;20240;-66